Terminal Aerodrome Forecast
Issued by NWS Wilmington, OH

Current Version | Previous Version | Text Only | Print | Product List | Glossary Off
Versions: 1 2 3 4 5 6 7 8 9 10 11 12 13 14 15 16 17 18 19 20 21

000
FTUS41 KILN 250500
TAFILN
TAF
KILN 250530Z 2506/2606 07005KT P6SM VCSH BKN080 OVC090
     FM251200 10010KT P6SM VCSH OVC050
     FM251600 10012G20KT P6SM -SHRA OVC040
     FM251800 10012G20KT 4SM -SHRA SCT015 OVC025
     FM252100 06012G20KT 5SM BR VCSH OVC015
     FM260200 03015G25KT P6SM OVC015=

USA.gov is the U.S. government's official web portal to all federal, state and local government web resources and services.